createdAt,value
2023-02-09T00:02:41.205Z,101881.63
2023-02-09T00:06:43.032Z,101885.66
2023-02-09T00:10:44.958Z,101869.72
2023-02-09T00:14:47.141Z,101873.41
2023-02-09T00:18:49.022Z,101874.38
2023-02-09T00:22:50.787Z,101872.97
2023-02-09T00:26:52.618Z,101866.84
2023-02-09T00:30:54.586Z,101881.53
2023-02-09T00:34:56.431Z,101872.41
2023-02-09T00:38:59.169Z,101877.63
2023-02-09T00:43:00.982Z,101882.38
2023-02-09T00:47:02.948Z,101867.09
2023-02-09T00:51:05.023Z,101872.50
2023-02-09T00:55:07.251Z,101862.09
2023-02-09T00:59:09.445Z,101865.66
2023-02-09T01:03:11.337Z,101861.56
2023-02-09T01:07:17.811Z,101854.19
2023-02-09T01:11:19.819Z,101860.94
2023-02-09T01:15:21.690Z,101859.16
2023-02-09T01:19:23.504Z,101854.13
2023-02-09T01:23:25.284Z,101847.41
2023-02-09T01:27:27.019Z,101850.16
2023-02-09T01:31:33.958Z,101849.50
2023-02-09T01:35:35.915Z,101843.59
2023-02-09T01:39:37.892Z,101840.13
2023-02-09T01:43:56.845Z,101834.31
2023-02-09T01:48:03.609Z,101841.19
2023-02-09T01:52:09.954Z,101830.25
2023-02-09T01:56:17.227Z,101826.78
2023-02-09T02:00:20.981Z,101837.91
2023-02-09T02:04:22.809Z,101827.03
2023-02-09T02:08:56.379Z,101831.28
2023-02-09T02:12:58.232Z,101827.13
2023-02-09T02:17:46.152Z,101832.19
2023-02-09T02:22:10.424Z,101831.41
2023-02-09T02:26:36.877Z,101823.00
2023-02-09T02:30:58.312Z,101840.13
2023-02-09T02:35:36.716Z,101834.28
2023-02-09T02:40:13.285Z,101836.81
2023-02-09T02:44:15.091Z,101812.13
2023-02-09T02:48:37.900Z,101828.25
2023-02-09T02:52:39.721Z,101814.69
2023-02-09T02:56:52.308Z,101812.19
2023-02-09T03:00:55.758Z,101823.28
2023-02-09T03:04:57.955Z,101809.78
2023-02-09T03:08:59.895Z,101825.88
2023-02-09T03:13:29.118Z,101816.56
2023-02-09T03:17:55.220Z,101814.84
2023-02-09T03:22:18.597Z,101820.03
2023-02-09T03:26:28.242Z,101814.94
2023-02-09T03:30:32.201Z,101816.69
2023-02-09T03:34:33.950Z,101814.16
2023-02-09T03:38:35.700Z,101817.63
2023-02-09T03:42:37.503Z,101808.25
2023-02-09T03:46:39.761Z,101812.47
2023-02-09T03:50:41.631Z,101806.56
2023-02-09T03:54:43.622Z,101795.53
2023-02-09T03:58:45.413Z,101800.75
2023-02-09T04:02:47.507Z,101797.31
2023-02-09T04:06:49.581Z,101799.91
2023-02-09T04:10:51.423Z,101796.53
2023-02-09T04:14:53.390Z,101778.66
2023-02-09T04:18:55.329Z,101788.94
2023-02-09T04:22:57.180Z,101789.03
2023-02-09T04:26:59.068Z,101787.28
2023-02-09T04:31:04.325Z,101777.06
2023-02-09T04:35:06.876Z,101788.94
2023-02-09T04:39:08.753Z,101778.88
2023-02-09T04:43:10.549Z,101781.34
2023-02-09T04:47:12.442Z,101790.72
2023-02-09T04:51:14.265Z,101778.84
2023-02-09T04:55:16.226Z,101775.41
2023-02-09T04:59:41.321Z,101764.41
2023-02-09T05:03:43.292Z,101771.19
2023-02-09T05:07:45.433Z,101762.69
2023-02-09T05:11:47.372Z,101765.28
2023-02-09T05:15:49.389Z,101758.56
2023-02-09T05:19:51.169Z,101760.28
2023-02-09T05:23:53.033Z,101762.78
2023-02-09T05:27:54.945Z,101764.44
2023-02-09T05:31:56.934Z,101764.53
2023-02-09T05:35:58.942Z,101754.31
2023-02-09T05:40:00.796Z,101746.63
2023-02-09T05:44:03.889Z,101760.22
2023-02-09T05:48:05.954Z,101747.47
2023-02-09T05:52:17.374Z,101745.81
2023-02-09T05:56:19.582Z,101766.22
2023-02-09T06:00:31.691Z,101753.53
2023-02-09T06:04:40.887Z,101745.88
2023-02-09T06:08:43.526Z,101759.50
2023-02-09T06:12:48.240Z,101747.63
2023-02-09T06:17:00.761Z,101757.81
2023-02-09T06:21:02.882Z,101764.56
2023-02-09T06:25:05.295Z,101770.50
2023-02-09T06:29:08.070Z,101759.50
2023-02-09T06:33:12.518Z,101765.44
2023-02-09T06:37:28.974Z,101771.38
2023-02-09T06:41:31.014Z,101767.13
2023-02-09T06:45:32.912Z,101772.19
2023-02-09T06:49:34.863Z,101775.56
2023-02-09T06:53:38.369Z,101769.66
2023-02-09T06:57:43.076Z,101772.13
2023-02-09T07:01:56.377Z,101770.41
2023-02-09T07:06:25.697Z,101768.69
2023-02-09T07:10:30.699Z,101772.84
2023-02-09T07:14:32.599Z,101770.16
2023-02-09T07:18:34.976Z,101767.28
2023-02-09T07:22:37.243Z,101770.25
2023-02-09T07:26:39.259Z,101766.34
2023-02-09T07:30:44.781Z,101778.81
2023-02-09T07:34:47.449Z,101781.31
2023-02-09T07:38:57.216Z,101781.69
2023-02-09T07:43:00.380Z,101777.88
2023-02-09T07:47:09.525Z,101768.47
2023-02-09T07:51:20.172Z,101778.72
2023-02-09T07:55:27.323Z,101775.56
2023-02-09T07:59:29.373Z,101764.03
2023-02-09T08:03:37.476Z,101766.94
2023-02-09T08:07:39.639Z,101768.88
2023-02-09T08:11:48.366Z,101776.03
2023-02-09T08:16:07.073Z,101783.84
2023-02-09T08:20:15.981Z,101787.81
2023-02-09T08:24:18.810Z,101767.81
2023-02-09T08:28:34.891Z,101776.00
2023-02-09T08:32:45.670Z,101773.69
2023-02-09T08:36:56.649Z,101773.25
2023-02-09T08:40:58.872Z,101768.38
2023-02-09T08:45:03.457Z,101767.59
2023-02-09T08:49:17.826Z,101760.38
2023-02-09T08:53:32.288Z,101761.63
2023-02-09T08:57:45.160Z,101773.16
2023-02-09T09:01:59.923Z,101762.97
2023-02-09T09:06:37.307Z,101748.84
2023-02-09T09:10:45.518Z,101752.00
2023-02-09T09:14:54.454Z,101756.34
2023-02-09T09:18:56.507Z,101760.88
2023-02-09T09:23:00.108Z,101758.31
2023-02-09T09:27:02.069Z,101771.00
2023-02-09T09:31:30.838Z,101759.78
2023-02-09T09:35:32.896Z,101757.00
2023-02-09T09:39:34.851Z,101763.56
2023-02-09T09:43:38.518Z,101763.66
2023-02-09T09:47:42.434Z,101746.31
2023-02-09T09:51:46.484Z,101741.28
2023-02-09T09:55:48.587Z,101765.31
2023-02-09T09:59:50.659Z,101756.69
2023-02-09T10:03:52.512Z,101753.03
2023-02-09T10:08:10.971Z,101753.94
2023-02-09T10:12:26.225Z,101743.56
2023-02-09T10:16:34.374Z,101739.75
2023-02-09T10:21:05.199Z,101747.91
2023-02-09T10:25:50.165Z,101748.06
2023-02-09T10:29:52.218Z,101735.66
2023-02-09T10:34:17.892Z,101737.59
2023-02-09T10:38:24.757Z,101725.91
2023-02-09T10:42:46.594Z,101708.09
2023-02-09T10:46:48.699Z,101701.56
2023-02-09T10:50:53.264Z,101702.13
2023-02-09T10:55:05.481Z,101700.31
2023-02-09T10:59:29.312Z,101688.41
2023-02-09T11:03:31.169Z,101690.94
2023-02-09T11:12:01.339Z,101669.88
2023-02-09T11:16:38.090Z,101673.41
2023-02-09T11:21:03.446Z,101660.72
2023-02-09T11:25:27.927Z,101659.06
2023-02-09T11:30:14.631Z,101650.03
2023-02-09T11:34:27.991Z,101635.31
2023-02-09T11:38:49.334Z,101616.94
2023-02-09T11:43:22.961Z,101611.47
2023-02-09T11:47:42.487Z,101615.53
2023-02-09T11:51:47.288Z,101600.53
2023-02-09T11:55:53.964Z,101590.91
2023-02-09T11:59:58.824Z,101584.13
2023-02-09T12:04:40.278Z,101570.66
2023-02-09T12:09:10.464Z,101577.69
2023-02-09T12:14:15.020Z,101560.84
2023-02-09T12:18:22.002Z,101553.69
2023-02-09T12:22:43.017Z,101562.63
2023-02-09T12:26:48.223Z,101558.56
2023-02-09T12:30:52.717Z,101546.22
2023-02-09T12:34:55.490Z,101537.03
2023-02-09T12:39:04.690Z,101526.47
2023-02-09T12:43:26.134Z,101515.59
2023-02-09T12:47:46.279Z,101497.19
2023-02-09T12:51:54.411Z,101474.94
2023-02-09T12:56:03.785Z,101457.34
2023-02-09T13:00:05.591Z,101487.06
2023-02-09T13:04:10.113Z,101485.22
2023-02-09T13:08:13.257Z,101500.50
2023-02-09T13:12:21.727Z,101491.50
2023-02-09T13:16:29.416Z,101481.25
2023-02-09T13:20:34.125Z,101474.47
2023-02-09T13:24:48.038Z,101475.41
2023-02-09T13:28:56.958Z,101459.97
2023-02-09T13:33:45.729Z,101444.44
2023-02-09T13:37:56.632Z,101443.88
2023-02-09T13:41:59.176Z,101438.41
2023-02-09T13:46:06.306Z,101448.91
2023-02-09T13:50:34.844Z,101460.38
2023-02-09T13:54:36.772Z,101460.03
2023-02-09T13:58:41.508Z,101464.28
2023-02-09T14:03:02.051Z,101466.97
2023-02-09T14:07:09.797Z,101477.88
2023-02-09T14:11:33.180Z,101471.44
2023-02-09T14:16:08.213Z,101469.25
2023-02-09T14:20:25.577Z,101463.50
2023-02-09T14:24:28.797Z,101478.44
2023-02-09T14:28:30.766Z,101476.75
2023-02-09T14:32:37.613Z,101502.50
2023-02-09T14:36:39.577Z,101499.66
2023-02-09T14:40:41.565Z,101476.03
2023-02-09T14:45:25.427Z,101492.63
2023-02-09T14:49:28.585Z,101498.09
2023-02-09T14:53:58.183Z,101493.19
2023-02-09T14:58:00.201Z,101492.69
2023-02-09T15:02:22.260Z,101485.44
2023-02-09T15:06:27.022Z,101469.94
2023-02-09T15:10:34.298Z,101480.78
2023-02-09T15:14:45.806Z,101475.25
2023-02-09T15:18:53.765Z,101478.16
2023-02-09T15:22:56.017Z,101478.72
2023-02-09T15:26:57.880Z,101470.97
2023-02-09T15:31:00.029Z,101473.91
2023-02-09T15:35:01.937Z,101475.22
2023-02-09T15:39:04.567Z,101495.47
2023-02-09T15:43:37.010Z,101485.31
2023-02-09T15:47:52.801Z,101487.25
2023-02-09T15:51:57.366Z,101496.09
2023-02-09T15:55:59.884Z,101493.50
2023-02-09T16:00:01.843Z,101508.63
2023-02-09T16:04:13.473Z,101496.47
2023-02-09T16:08:27.804Z,101499.81
2023-02-09T16:12:29.791Z,101504.78
2023-02-09T16:16:32.394Z,101508.31
2023-02-09T16:20:34.487Z,101503.69
2023-02-09T16:24:43.933Z,101518.38
2023-02-09T16:28:47.665Z,101522.16
2023-02-09T16:32:49.705Z,101524.78
2023-02-09T16:36:55.645Z,101528.38
2023-02-09T16:41:01.065Z,101516.31
2023-02-09T16:45:04.049Z,101521.47
2023-02-09T16:49:05.837Z,101518.94
2023-02-09T16:53:25.412Z,101522.31
2023-02-09T16:57:28.063Z,101547.56
2023-02-09T17:01:34.703Z,101558.72
2023-02-09T17:05:37.451Z,101553.97
2023-02-09T17:09:59.919Z,101552.09
2023-02-09T17:14:01.995Z,101549.09
2023-02-09T17:18:09.097Z,101555.75
2023-02-09T17:22:13.298Z,101568.03
2023-02-09T17:26:15.629Z,101568.84
2023-02-09T17:30:17.883Z,101575.09
2023-02-09T17:35:13.827Z,101575.75
2023-02-09T17:39:18.791Z,101593.84
2023-02-09T17:43:21.093Z,101593.34
2023-02-09T17:47:31.461Z,101594.13
2023-02-09T17:51:37.306Z,101600.44
2023-02-09T17:55:39.453Z,101607.31
2023-02-09T17:59:44.069Z,101599.97
2023-02-09T18:03:49.257Z,101618.28
2023-02-09T18:07:57.082Z,101608.53
2023-02-09T18:12:02.283Z,101597.44
2023-02-09T18:16:24.664Z,101593.94
2023-02-09T18:20:36.243Z,101593.97
2023-02-09T18:24:46.930Z,101593.94
2023-02-09T18:28:50.771Z,101604.22
2023-02-09T18:33:02.709Z,101590.78
2023-02-09T18:37:16.256Z,101595.53
2023-02-09T18:41:34.848Z,101588.63
2023-02-09T18:45:36.956Z,101584.56
2023-02-09T18:49:44.817Z,101586.34
2023-02-09T18:53:47.585Z,101585.59
2023-02-09T18:58:08.652Z,101594.91
2023-02-09T19:02:24.796Z,101590.16
2023-02-09T19:06:29.786Z,101592.69
2023-02-09T19:10:33.279Z,101592.19
2023-02-09T19:14:42.162Z,101579.91
2023-02-09T19:18:48.036Z,101592.34
2023-02-09T19:22:53.266Z,101596.13
2023-02-09T19:26:56.197Z,101593.31
2023-02-09T19:31:00.550Z,101588.06
2023-02-09T19:35:04.337Z,101590.56
2023-02-09T19:39:19.417Z,101589.19
2023-02-09T19:43:26.701Z,101586.47
2023-02-09T19:47:39.816Z,101589.84
2023-02-09T19:51:41.924Z,101591.34
2023-02-09T19:55:53.829Z,101592.28
2023-02-09T20:00:02.079Z,101591.31
2023-02-09T20:04:11.615Z,101587.16
2023-02-09T20:08:14.974Z,101601.00
2023-02-09T20:12:21.214Z,101617.03
2023-02-09T20:16:35.063Z,101613.88
2023-02-09T20:20:52.128Z,101606.06
2023-02-09T20:25:02.595Z,101620.09
2023-02-09T20:29:07.031Z,101600.41
2023-02-09T20:33:10.254Z,101595.06
2023-02-09T20:37:14.685Z,101604.53
2023-02-09T20:41:17.627Z,101603.00
2023-02-09T20:45:37.961Z,101603.75
2023-02-09T20:49:40.653Z,101595.94
2023-02-09T20:53:42.542Z,101591.97
2023-02-09T20:57:44.440Z,101589.03
2023-02-09T21:01:46.325Z,101582.16
2023-02-09T21:05:48.160Z,101584.50
2023-02-09T21:09:50.130Z,101580.91
2023-02-09T21:13:51.964Z,101572.63
2023-02-09T21:17:53.819Z,101577.97
2023-02-09T21:21:55.783Z,101599.41
2023-02-09T21:26:09.385Z,101584.09
2023-02-09T21:30:12.211Z,101594.66
2023-02-09T21:34:20.061Z,101604.03
2023-02-09T21:42:39.061Z,101616.56
2023-02-09T21:46:41.030Z,101631.06
2023-02-09T21:50:42.923Z,101631.91
2023-02-09T21:54:44.900Z,101632.81
2023-02-09T21:58:46.907Z,101638.00
2023-02-09T22:02:54.166Z,101658.69
2023-02-09T22:06:56.076Z,101653.03
2023-02-09T22:11:06.054Z,101660.56
2023-02-09T22:15:08.605Z,101654.97
2023-02-09T22:19:10.487Z,101663.69
2023-02-09T22:23:12.722Z,101673.78
2023-02-09T22:27:14.726Z,101662.47
2023-02-09T22:31:18.622Z,101666.19
2023-02-09T22:35:20.565Z,101660.47
2023-02-09T22:39:22.418Z,101671.41
2023-02-09T22:43:24.238Z,101668.84
2023-02-09T22:47:26.157Z,101665.84
2023-02-09T22:51:29.932Z,101664.66
2023-02-09T22:55:31.789Z,101655.22
2023-02-09T22:59:36.273Z,101664.53
2023-02-09T23:03:39.192Z,101666.16
2023-02-09T23:07:41.756Z,101656.88
2023-02-09T23:11:44.407Z,101664.56
2023-02-09T23:15:46.659Z,101664.88
2023-02-09T23:19:48.648Z,101659.66
2023-02-09T23:23:50.516Z,101658.94
2023-02-09T23:27:52.400Z,101640.19
2023-02-09T23:31:54.350Z,101633.34
2023-02-09T23:35:56.172Z,101638.47
2023-02-09T23:39:58.003Z,101643.38
2023-02-09T23:43:59.979Z,101648.63
2023-02-09T23:48:01.871Z,101656.31
2023-02-09T23:52:03.745Z,101657.09
2023-02-09T23:56:05.774Z,101673.53
